Time;durP1;ratioP1;P1;durP2;ratioP2;P2;SDS_P1;SDS_P2;PMS_P1;PMS_P2;Temp;Humidity;BMP_temperature;BMP_pressure;BME280_temperature;BME280_humidity;BME280_pressure;Samples;Min_cycle;Max_cycle;Signal;HPM_P1;HPM_P2
2021/08/07 00:02:14;;;;;;;8.10;7.43;;;15.50;99.90;;;;;;4898935;29;20216;-80
2021/08/07 00:04:41;;;;;;;3.63;3.33;;;15.50;99.90;;;;;;4898883;29;20214;-79
2021/08/07 00:07:08;;;;;;;3.60;2.80;;;15.50;99.90;;;;;;4899196;29;20239;-80
2021/08/07 00:09:35;;;;;;;3.50;2.97;;;15.50;99.90;;;;;;4894677;29;20240;-79
2021/08/07 00:12:02;;;;;;;3.10;2.80;;;15.50;99.90;;;;;;4894867;29;20666;-80
2021/08/07 00:14:29;;;;;;;4.13;3.00;;;15.40;99.90;;;;;;4897289;29;20199;-80
2021/08/07 00:16:56;;;;;;;3.30;2.97;;;15.40;99.90;;;;;;4897389;29;20250;-80
2021/08/07 00:19:24;;;;;;;4.20;3.90;;;15.30;99.90;;;;;;4899048;29;20636;-80
2021/08/07 00:21:51;;;;;;;4.80;4.40;;;15.40;99.90;;;;;;4896311;29;20216;-79
2021/08/07 00:24:18;;;;;;;4.40;4.10;;;15.40;99.90;;;;;;4897240;29;20235;-80
2021/08/07 00:26:44;;;;;;;4.43;4.13;;;15.40;99.90;;;;;;4898720;29;20552;-79
2021/08/07 00:29:11;;;;;;;5.70;5.20;;;15.40;99.90;;;;;;4910054;29;20244;-79
2021/08/07 00:31:38;;;;;;;5.40;5.00;;;15.30;99.90;;;;;;4897466;29;20208;-79
2021/08/07 00:34:06;;;;;;;6.40;5.90;;;15.40;99.90;;;;;;4896950;29;20224;-79
2021/08/07 00:36:34;;;;;;;7.00;6.50;;;15.30;99.90;;;;;;4896854;29;20240;-79
2021/08/07 00:39:01;;;;;;;6.33;5.93;;;15.30;99.90;;;;;;4894976;29;20208;-79
2021/08/07 00:41:30;;;;;;;7.13;6.43;;;15.30;99.90;;;;;;4904724;29;20627;-80
2021/08/07 00:43:57;;;;;;;6.87;6.37;;;15.30;99.90;;;;;;4904972;29;20224;-79
2021/08/07 00:46:31;;;;;;;6.00;5.50;;;15.30;99.90;;;;;;4896632;29;20231;-79
2021/08/07 00:48:58;;;;;;;5.10;4.60;;;15.30;99.90;;;;;;4912341;29;20231;-79
2021/08/07 00:51:26;;;;;;;5.67;5.27;;;15.30;99.90;;;;;;4897957;29;20205;-80
2021/08/07 00:53:57;;;;;;;5.43;5.00;;;15.40;99.90;;;;;;4896208;29;20215;-80
2021/08/07 00:56:26;;;;;;;4.80;4.40;;;15.40;99.90;;;;;;4896625;29;20206;-79
2021/08/07 00:59:03;;;;;;;5.20;4.00;;;15.50;99.90;;;;;;4896291;29;20196;-79
2021/08/07 01:01:38;;;;;;;4.37;3.97;;;15.50;99.90;;;;;;4892883;29;20292;-79
2021/08/07 01:04:12;;;;;;;4.53;3.70;;;15.60;99.90;;;;;;4893074;29;20223;-79
2021/08/07 01:06:47;;;;;;;3.70;3.40;;;15.60;99.90;;;;;;4894450;29;20288;-81
2021/08/07 01:09:27;;;;;;;3.80;3.50;;;15.70;99.90;;;;;;4892697;29;20297;-79
2021/08/07 01:12:00;;;;;;;6.63;6.00;;;15.60;99.90;;;;;;4895704;29;20563;-80
2021/08/07 01:14:35;;;;;;;7.43;6.90;;;15.70;99.90;;;;;;4896191;29;20197;-79
2021/08/07 01:17:04;;;;;;;8.43;7.83;;;15.60;99.90;;;;;;4904519;29;20297;-79
2021/08/07 01:19:45;;;;;;;7.33;6.60;;;15.60;99.90;;;;;;4896154;29;20270;-79
2021/08/07 01:22:14;;;;;;;7.00;6.50;;;15.60;99.90;;;;;;4905867;29;20227;-79
2021/08/07 01:25:02;;;;;;;8.00;7.30;;;15.60;99.90;;;;;;4911662;29;20214;-78
2021/08/07 01:27:36;;;;;;;7.40;6.70;;;15.60;99.90;;;;;;4893519;29;20229;-79
2021/08/07 01:30:17;;;;;;;6.60;6.20;;;15.70;99.90;;;;;;4913240;29;20630;-79
2021/08/07 01:32:46;;;;;;;7.00;6.30;;;15.60;99.90;;;;;;4898282;29;20227;-79
2021/08/07 01:35:15;;;;;;;6.63;6.10;;;15.60;99.90;;;;;;4896328;29;20550;-80
2021/08/07 01:37:47;;;;;;;6.07;5.57;;;15.60;99.90;;;;;;4899203;29;20223;-80
2021/08/07 01:40:21;;;;;;;6.27;5.87;;;15.60;99.90;;;;;;4896356;29;20208;-79
2021/08/07 01:42:56;;;;;;;6.70;6.20;;;15.60;99.90;;;;;;4926894;23;20739;-75
2021/08/07 01:45:27;;;;;;;6.30;5.70;;;15.50;99.90;;;;;;4917736;29;20196;-76
2021/08/07 01:48:03;;;;;;;7.07;6.03;;;15.50;99.90;;;;;;4908947;29;20715;-76
2021/08/07 01:50:46;;;;;;;6.50;5.90;;;15.50;99.90;;;;;;4910923;29;20189;-75
2021/08/07 01:53:19;;;;;;;5.87;5.47;;;15.50;99.90;;;;;;4912020;29;20281;-76
2021/08/07 01:55:51;;;;;;;7.47;5.80;;;15.40;99.90;;;;;;4906444;29;20673;-75
2021/08/07 01:58:25;;;;;;;5.43;5.00;;;15.50;99.90;;;;;;4906099;29;20204;-76
2021/08/07 02:00:53;;;;;;;5.90;5.50;;;15.50;99.90;;;;;;4909974;29;20192;-76
2021/08/07 02:03:33;;;;;;;6.00;5.60;;;15.50;99.90;;;;;;4908578;29;20693;-76
2021/08/07 02:06:00;;;;;;;5.70;5.30;;;15.50;99.90;;;;;;4897340;29;20559;-75
2021/08/07 02:08:28;;;;;;;5.23;4.93;;;15.50;99.90;;;;;;4896532;29;20245;-76
2021/08/07 02:10:58;;;;;;;6.30;5.70;;;15.60;99.90;;;;;;4906777;29;20262;-76
2021/08/07 02:13:27;;;;;;;6.40;5.10;;;15.60;99.90;;;;;;4905966;29;20244;-76
2021/08/07 02:16:03;;;;;;;5.67;5.20;;;15.60;99.90;;;;;;4902297;29;20197;-77
2021/08/07 02:18:33;;;;;;;6.00;5.50;;;15.60;99.90;;;;;;4908865;29;20232;-75
2021/08/07 02:21:02;;;;;;;6.60;5.93;;;15.60;99.90;;;;;;4905127;29;20677;-76
2021/08/07 02:23:36;;;;;;;7.30;6.27;;;15.70;99.90;;;;;;4897776;29;20250;-76
2021/08/07 02:26:06;;;;;;;7.23;6.50;;;15.70;99.90;;;;;;4906600;29;20192;-77
2021/08/07 02:28:42;;;;;;;7.63;7.03;;;15.70;99.90;;;;;;4906450;29;20223;-76
2021/08/07 02:31:13;;;;;;;7.83;7.23;;;15.60;99.90;;;;;;4905812;29;20343;-76
2021/08/07 02:33:45;;;;;;;8.03;7.40;;;15.60;99.90;;;;;;4905744;29;20220;-76
2021/08/07 02:36:16;;;;;;;7.20;6.60;;;15.50;99.90;;;;;;4906520;29;20204;-76
2021/08/07 02:38:46;;;;;;;7.27;6.70;;;15.50;99.90;;;;;;4908799;29;20288;-76
2021/08/07 02:41:14;;;;;;;7.77;7.10;;;15.50;99.90;;;;;;4906989;29;20660;-76
2021/08/07 02:43:47;;;;;;;7.50;6.90;;;15.40;99.90;;;;;;4900854;29;20225;-76
2021/08/07 02:46:16;;;;;;;7.83;7.13;;;15.40;99.90;;;;;;4906538;29;20192;-78
2021/08/07 02:48:43;;;;;;;7.30;6.70;;;15.30;99.90;;;;;;4908107;29;20208;-77
2021/08/07 02:51:11;;;;;;;6.40;6.00;;;15.30;99.90;;;;;;4909598;29;20322;-77
2021/08/07 02:53:48;;;;;;;7.00;6.50;;;15.30;99.90;;;;;;4900429;29;20275;-77
2021/08/07 02:56:17;;;;;;;6.63;6.00;;;15.30;99.90;;;;;;4897873;29;20208;-76
2021/08/07 02:58:46;;;;;;;6.17;5.77;;;15.20;99.90;;;;;;4884245;29;20211;-76
2021/08/07 03:01:14;;;;;;;6.70;6.20;;;15.30;99.90;;;;;;4897620;29;20617;-76
2021/08/07 03:03:45;;;;;;;6.50;6.00;;;15.20;99.90;;;;;;4895204;29;20216;-76
2021/08/07 03:06:13;;;;;;;6.43;6.00;;;15.20;99.90;;;;;;4886478;29;20300;-77
2021/08/07 03:08:41;;;;;;;6.23;5.83;;;15.20;99.90;;;;;;4895609;29;20300;-76
2021/08/07 03:11:11;;;;;;;6.13;5.63;;;15.20;99.90;;;;;;4883692;29;20292;-76
2021/08/07 03:13:38;;;;;;;5.90;5.50;;;15.20;99.90;;;;;;4900609;29;20630;-77
2021/08/07 03:16:07;;;;;;;6.53;5.93;;;15.20;99.90;;;;;;4908091;29;20286;-80
2021/08/07 03:18:40;;;;;;;5.90;5.50;;;15.10;99.90;;;;;;4902870;29;20196;-77
2021/08/07 03:21:08;;;;;;;6.10;5.60;;;15.10;99.90;;;;;;4896356;29;20197;-77
2021/08/07 03:23:44;;;;;;;6.53;5.57;;;15.10;99.90;;;;;;4901535;29;20463;-78
2021/08/07 03:26:11;;;;;;;6.33;5.77;;;15.10;99.90;;;;;;4903174;29;20213;-77
2021/08/07 03:28:39;;;;;;;7.10;6.43;;;15.10;99.90;;;;;;4901197;29;20295;-77
2021/08/07 03:31:09;;;;;;;6.80;6.30;;;15.10;99.90;;;;;;4905489;29;20596;-76
2021/08/07 03:33:39;;;;;;;6.73;6.20;;;15.10;99.90;;;;;;4906495;29;20216;-76
2021/08/07 03:36:08;;;;;;;6.70;6.20;;;15.00;99.90;;;;;;4904934;29;20593;-76
2021/08/07 03:38:37;;;;;;;7.03;6.53;;;15.00;99.90;;;;;;4904765;29;20299;-76
2021/08/07 03:41:04;;;;;;;7.20;6.60;;;14.90;99.90;;;;;;4892191;29;20184;-75
2021/08/07 03:43:31;;;;;;;7.53;6.73;;;14.90;99.90;;;;;;4903920;29;20260;-76
2021/08/07 03:45:59;;;;;;;6.97;6.47;;;14.90;99.90;;;;;;4903676;29;20188;-76
2021/08/07 03:48:30;;;;;;;8.70;6.57;;;14.90;99.90;;;;;;4904003;29;20640;-76
2021/08/07 03:50:57;;;;;;;6.37;5.87;;;14.90;99.90;;;;;;4901111;29;20227;-75
2021/08/07 03:53:33;;;;;;;8.13;7.50;;;14.90;99.90;;;;;;4907006;29;20219;-76
2021/08/07 03:55:59;;;;;;;8.00;7.43;;;14.90;99.90;;;;;;4899329;29;20690;-76
2021/08/07 03:58:27;;;;;;;9.60;8.80;;;14.90;99.90;;;;;;4903343;29;20219;-76
2021/08/07 04:01:01;;;;;;;9.10;8.40;;;14.90;99.90;;;;;;4905203;29;20557;-76
2021/08/07 04:03:32;;;;;;;8.73;8.03;;;15.00;99.90;;;;;;4907729;29;20227;-76
2021/08/07 04:06:01;;;;;;;7.30;6.73;;;15.00;99.90;;;;;;4901692;29;20196;-76
2021/08/07 04:08:29;;;;;;;6.27;5.77;;;15.00;99.90;;;;;;4903652;29;20252;-75
2021/08/07 04:10:56;;;;;;;5.83;5.30;;;15.00;99.90;;;;;;4898554;29;20206;-76
2021/08/07 04:13:26;;;;;;;6.93;5.10;;;15.00;99.90;;;;;;4910132;29;20226;-76
2021/08/07 04:15:54;;;;;;;5.90;5.10;;;14.90;99.90;;;;;;4903157;29;20200;-76
2021/08/07 04:18:21;;;;;;;5.83;5.43;;;14.90;99.90;;;;;;4905596;29;20196;-76
2021/08/07 04:20:52;;;;;;;5.90;5.40;;;15.00;99.90;;;;;;4897305;29;20217;-75
2021/08/07 04:23:21;;;;;;;6.60;6.10;;;15.00;99.90;;;;;;4903046;29;20228;-75
2021/08/07 04:25:47;;;;;;;7.03;6.43;;;15.00;99.90;;;;;;4903613;29;20236;-76
2021/08/07 04:28:14;;;;;;;8.27;7.57;;;14.90;99.90;;;;;;4904646;29;20408;-76
2021/08/07 04:30:44;;;;;;;7.67;7.17;;;14.90;99.90;;;;;;4897374;29;20199;-76
2021/08/07 04:33:11;;;;;;;8.00;6.77;;;14.90;99.90;;;;;;4904371;29;20230;-76
2021/08/07 04:35:44;;;;;;;7.47;6.77;;;14.90;99.90;;;;;;4906167;29;20196;-76
2021/08/07 04:38:20;;;;;;;7.00;6.50;;;15.00;99.90;;;;;;4902624;29;20215;-76
2021/08/07 04:40:48;;;;;;;7.93;6.50;;;15.00;99.90;;;;;;4901647;29;20265;-76
2021/08/07 04:43:20;;;;;;;7.80;7.30;;;15.00;99.90;;;;;;4905846;29;20255;-76
2021/08/07 04:45:47;;;;;;;11.07;7.13;;;15.00;99.90;;;;;;4905266;29;20549;-76
2021/08/07 04:48:16;;;;;;;7.53;6.83;;;15.10;99.90;;;;;;4899175;29;20668;-76
2021/08/07 04:50:50;;;;;;;7.33;6.70;;;15.10;99.90;;;;;;4898479;29;20207;-76
2021/08/07 04:53:19;;;;;;;8.20;7.57;;;15.10;99.90;;;;;;4903775;29;20229;-76
2021/08/07 04:55:50;;;;;;;6.80;6.30;;;15.20;99.90;;;;;;4909875;29;20575;-76
2021/08/07 04:58:18;;;;;;;7.50;6.90;;;15.30;99.90;;;;;;4903943;29;20678;-75
2021/08/07 05:00:45;;;;;;;9.87;8.97;;;15.40;99.90;;;;;;4904891;29;20204;-76
2021/08/07 05:03:13;;;;;;;10.37;9.47;;;15.50;99.90;;;;;;4906768;29;20226;-76
2021/08/07 05:05:43;;;;;;;10.97;10.03;;;15.50;99.90;;;;;;4908910;29;20278;-76
2021/08/07 05:08:12;;;;;;;9.93;9.03;;;15.60;99.90;;;;;;4902370;29;20227;-76
2021/08/07 05:10:42;;;;;;;10.27;9.57;;;15.60;99.90;;;;;;4909459;29;20201;-76
2021/08/07 05:13:09;;;;;;;10.07;9.27;;;15.70;99.90;;;;;;4900222;29;20565;-76
2021/08/07 05:15:37;;;;;;;6.67;6.20;;;15.80;99.90;;;;;;4902060;29;20259;-77
2021/08/07 05:18:05;;;;;;;10.40;9.70;;;15.80;99.90;;;;;;4918443;29;20197;-76
2021/08/07 05:20:33;;;;;;;7.67;7.07;;;15.80;99.90;;;;;;4896848;29;20196;-76
2021/08/07 05:23:00;;;;;;;10.40;9.53;;;15.90;99.90;;;;;;4905354;29;20279;-76
2021/08/07 05:25:26;;;;;;;10.40;9.70;;;15.90;99.90;;;;;;4906720;29;20259;-76
2021/08/07 05:27:55;;;;;;;7.87;7.30;;;16.00;99.90;;;;;;4905293;29;20268;-76
2021/08/07 05:30:23;;;;;;;7.73;7.00;;;16.10;99.90;;;;;;4895693;29;20687;-76
2021/08/07 05:32:52;;;;;;;4.10;3.73;;;16.20;99.90;;;;;;4902615;29;20255;-76
2021/08/07 05:35:20;;;;;;;6.60;6.10;;;16.20;99.90;;;;;;4903099;29;20646;-76
2021/08/07 05:37:47;;;;;;;6.07;5.63;;;16.30;99.90;;;;;;4904394;29;20211;-76
2021/08/07 05:40:15;;;;;;;6.73;6.23;;;16.40;99.90;;;;;;4901322;29;20245;-76
2021/08/07 05:42:47;;;;;;;8.43;7.77;;;16.60;99.90;;;;;;4905497;29;20693;-76
2021/08/07 05:45:17;;;;;;;8.63;7.90;;;16.60;99.90;;;;;;4899034;29;20205;-76
2021/08/07 05:47:44;;;;;;;7.70;7.27;;;16.60;99.90;;;;;;4902848;29;20545;-76
2021/08/07 05:50:11;;;;;;;9.53;8.73;;;16.70;99.90;;;;;;4899820;29;20310;-76
2021/08/07 05:52:40;;;;;;;8.50;7.90;;;16.70;99.90;;;;;;4915543;29;20203;-76
2021/08/07 05:55:08;;;;;;;8.77;8.13;;;16.80;99.90;;;;;;4905569;29;20197;-76
2021/08/07 05:57:37;;;;;;;7.70;7.20;;;16.80;99.90;;;;;;4906550;29;20678;-76
2021/08/07 06:00:05;;;;;;;9.83;9.13;;;16.90;99.90;;;;;;4903049;29;20288;-76
2021/08/07 06:02:45;;;;;;;9.60;8.90;;;17.00;99.90;;;;;;4905402;29;20234;-76
2021/08/07 06:05:18;;;;;;;9.27;8.67;;;17.00;99.90;;;;;;4901678;29;20703;-76
2021/08/07 06:07:45;;;;;;;8.90;8.30;;;17.00;99.90;;;;;;4900495;29;20663;-77
2021/08/07 06:10:12;;;;;;;9.50;8.80;;;17.00;99.90;;;;;;4900961;29;20216;-76
2021/08/07 06:12:41;;;;;;;9.70;9.10;;;17.20;99.90;;;;;;4900768;29;20204;-76
2021/08/07 06:15:08;;;;;;;9.90;9.30;;;17.40;99.90;;;;;;4906793;29;20689;-76
2021/08/07 06:17:38;;;;;;;8.57;7.87;;;17.80;99.90;;;;;;4904298;29;20212;-76
2021/08/07 06:20:08;;;;;;;4.70;4.30;;;18.20;99.90;;;;;;4905325;29;20208;-76
2021/08/07 06:22:37;;;;;;;6.47;5.97;;;18.50;99.90;;;;;;4901257;29;20218;-76
2021/08/07 06:25:05;;;;;;;7.33;6.77;;;18.80;99.90;;;;;;4911528;29;20250;-76
2021/08/07 06:27:33;;;;;;;9.97;9.37;;;19.00;99.90;;;;;;4899449;29;20237;-77
2021/08/07 06:29:59;;;;;;;6.93;6.43;;;19.10;99.90;;;;;;4909650;29;20223;-76
2021/08/07 06:32:27;;;;;;;9.87;9.07;;;18.90;99.90;;;;;;4905042;29;20196;-76
2021/08/07 06:34:53;;;;;;;8.50;8.00;;;18.90;99.90;;;;;;4908955;29;20200;-76
2021/08/07 06:37:22;;;;;;;9.40;8.70;;;19.00;99.90;;;;;;4901080;29;20261;-76
2021/08/07 06:39:49;;;;;;;7.47;6.87;;;19.30;99.90;;;;;;4912290;29;20192;-76
2021/08/07 06:42:15;;;;;;;7.17;6.57;;;19.60;99.90;;;;;;4905651;29;20638;-76
2021/08/07 06:45:00;;;;;;;8.10;7.50;;;19.90;99.90;;;;;;4902495;29;20196;-76
2021/08/07 06:47:28;;;;;;;4.43;4.13;;;20.20;99.90;;;;;;4910876;29;20303;-76
2021/08/07 06:49:55;;;;;;;7.73;7.23;;;20.40;99.90;;;;;;4906707;29;20250;-76
2021/08/07 06:52:23;;;;;;;8.83;8.20;;;20.60;99.90;;;;;;4908773;29;20210;-76
2021/08/07 06:54:50;;;;;;;8.80;8.20;;;20.70;99.90;;;;;;4907023;29;20243;-76
2021/08/07 06:57:18;;;;;;;9.20;8.57;;;20.70;99.90;;;;;;4905425;29;20206;-77
2021/08/07 06:59:46;;;;;;;8.93;8.33;;;21.00;99.90;;;;;;4901481;29;20194;-76
2021/08/07 07:02:13;;;;;;;10.23;9.43;;;21.20;99.90;;;;;;4908440;29;20728;-76
2021/08/07 07:04:40;;;;;;;8.10;7.50;;;21.60;99.90;;;;;;4904353;29;20279;-76
2021/08/07 07:07:07;;;;;;;8.53;8.00;;;22.00;99.90;;;;;;4900585;29;20299;-76
2021/08/07 07:09:36;;;;;;;9.43;7.70;;;21.90;99.90;;;;;;4902431;29;20707;-77
2021/08/07 07:12:04;;;;;;;9.47;8.67;;;21.70;99.90;;;;;;4899598;29;20200;-76
2021/08/07 07:14:31;;;;;;;9.10;8.40;;;21.60;99.90;;;;;;4907235;29;20265;-76
2021/08/07 07:16:58;;;;;;;3.83;2.83;;;21.30;99.90;;;;;;4895083;29;20200;-77
2021/08/07 07:19:29;;;;;;;5.47;5.13;;;21.00;99.90;;;;;;4904948;29;20192;-78
2021/08/07 07:21:56;;;;;;;7.27;6.73;;;20.70;99.90;;;;;;4908985;29;20298;-76
2021/08/07 07:24:23;;;;;;;9.60;8.90;;;20.50;99.90;;;;;;4905341;29;20220;-76
2021/08/07 07:26:51;;;;;;;8.30;7.63;;;20.40;99.90;;;;;;4910314;29;20226;-75
2021/08/07 07:29:18;;;;;;;6.30;5.90;;;20.50;99.90;;;;;;4904213;29;20216;-76
2021/08/07 07:31:45;;;;;;;3.53;3.23;;;20.70;99.90;;;;;;4909410;29;20206;-76
2021/08/07 07:34:16;;;;;;;2.97;2.23;;;21.00;99.90;;;;;;4908585;29;20226;-77
2021/08/07 07:36:43;;;;;;;2.80;2.50;;;21.30;99.90;;;;;;4905311;29;20204;-76
2021/08/07 07:39:10;;;;;;;4.30;2.40;;;21.60;99.90;;;;;;4903067;29;20645;-77
2021/08/07 07:41:37;;;;;;;4.93;4.53;;;21.70;99.90;;;;;;4895939;29;20292;-77
2021/08/07 07:44:10;;;;;;;4.33;3.50;;;21.70;99.90;;;;;;4919032;23;20232;-80
2021/08/07 07:46:37;;;;;;;2.93;2.30;;;21.90;99.90;;;;;;4898931;29;20266;-81
2021/08/07 07:49:06;;;;;;;6.43;6.03;;;22.00;99.90;;;;;;4905859;29;20192;-80
2021/08/07 07:51:33;;;;;;;4.57;4.17;;;22.00;99.90;;;;;;4904397;29;20256;-80
2021/08/07 07:54:00;;;;;;;3.33;2.50;;;21.80;99.90;;;;;;4897057;29;20216;-79
2021/08/07 07:56:28;;;;;;;4.40;2.90;;;21.60;99.90;;;;;;4889876;29;20256;-81
2021/08/07 07:58:55;;;;;;;3.37;2.70;;;21.50;99.90;;;;;;4889053;29;20219;-79
2021/08/07 08:01:23;;;;;;;2.63;2.43;;;21.50;99.90;;;;;;4887387;29;20659;-81
2021/08/07 08:03:51;;;;;;;10.23;9.53;;;21.60;99.90;;;;;;4885635;29;20221;-79
2021/08/07 08:06:19;;;;;;;8.73;8.23;;;21.80;99.90;;;;;;4893412;29;20340;-80
2021/08/07 08:08:46;;;;;;;7.77;7.27;;;21.80;99.90;;;;;;4895672;29;20201;-80
2021/08/07 08:11:14;;;;;;;2.43;2.23;;;21.90;99.90;;;;;;4882204;29;20237;-80
2021/08/07 08:13:41;;;;;;;2.90;2.50;;;22.20;99.90;;;;;;4887544;29;20220;-81
2021/08/07 08:16:09;;;;;;;8.20;7.60;;;22.40;99.90;;;;;;4880997;29;20229;-81
2021/08/07 08:18:41;;;;;;;3.47;3.17;;;22.60;99.90;;;;;;4878676;29;20203;-81
2021/08/07 08:21:08;;;;;;;7.83;7.23;;;22.80;99.90;;;;;;4886106;29;20655;-80
2021/08/07 08:23:36;;;;;;;3.87;3.57;;;22.90;99.90;;;;;;4889454;29;20244;-80
2021/08/07 08:26:04;;;;;;;5.60;5.10;;;22.90;99.90;;;;;;4877417;29;20229;-80
2021/08/07 08:28:33;;;;;;;7.60;7.00;;;23.00;99.90;;;;;;4884999;29;20196;-80
2021/08/07 08:31:02;;;;;;;3.13;2.83;;;23.20;99.90;;;;;;4870864;29;20699;-80
2021/08/07 08:33:32;;;;;;;2.93;2.23;;;23.30;99.90;;;;;;4881757;29;20311;-79
2021/08/07 08:36:01;;;;;;;5.00;4.50;;;23.30;99.90;;;;;;4889923;29;20658;-80
2021/08/07 08:38:29;;;;;;;3.93;3.63;;;23.30;99.90;;;;;;4878472;29;20197;-81
2021/08/07 08:40:58;;;;;;;2.60;2.40;;;23.30;99.90;;;;;;4903595;29;20217;-80
2021/08/07 08:43:26;;;;;;;5.73;5.33;;;23.10;99.90;;;;;;4881237;29;20383;-81
2021/08/07 08:45:56;;;;;;;6.00;5.60;;;23.00;99.90;;;;;;4880185;29;20264;-81
2021/08/07 08:48:24;;;;;;;8.23;7.67;;;22.90;99.90;;;;;;4879709;29;20726;-80
2021/08/07 08:50:53;;;;;;;8.83;8.23;;;22.70;99.90;;;;;;4879738;29;20224;-81
2021/08/07 08:53:22;;;;;;;8.40;7.80;;;22.60;99.90;;;;;;4885543;29;20217;-79
2021/08/07 08:55:49;;;;;;;8.00;7.50;;;22.50;99.90;;;;;;4892953;29;20559;-79
2021/08/07 08:58:16;;;;;;;7.83;7.27;;;22.30;99.90;;;;;;4877456;29;20692;-79
2021/08/07 09:00:45;;;;;;;7.80;7.30;;;22.30;99.90;;;;;;4872991;29;20657;-80
2021/08/07 09:03:12;;;;;;;8.40;7.90;;;22.10;99.90;;;;;;4876940;29;20232;-81
2021/08/07 09:05:39;;;;;;;8.07;7.57;;;21.90;99.90;;;;;;4904744;29;20212;-80
2021/08/07 09:08:06;;;;;;;8.20;7.60;;;21.80;99.90;;;;;;4876897;29;20227;-80
2021/08/07 09:10:36;;;;;;;8.60;8.10;;;21.70;99.90;;;;;;4879292;29;20217;-81
2021/08/07 09:13:06;;;;;;;7.57;7.17;;;21.70;99.90;;;;;;4883147;29;20204;-80
2021/08/07 09:15:36;;;;;;;7.97;7.47;;;21.70;99.90;;;;;;4889633;29;20325;-80
2021/08/07 09:18:16;;;;;;;8.17;7.67;;;21.60;99.90;;;;;;4878704;29;20449;-78
2021/08/07 09:20:51;;;;;;;8.63;7.93;;;21.50;99.90;;;;;;4877482;29;20659;-80
2021/08/07 09:23:30;;;;;;;8.43;7.83;;;21.30;99.90;;;;;;4882669;29;20228;-80
2021/08/07 09:26:19;;;;;;;8.63;8.03;;;21.20;99.90;;;;;;4876767;29;20214;-78
2021/08/07 09:28:55;;;;;;;8.47;7.90;;;21.20;99.90;;;;;;4880731;29;20324;-79
2021/08/07 09:36:00;;;;;;;8.90;8.30;;;21.10;99.90;;;;;;4875781;29;20202;-80
2021/08/07 09:38:46;;;;;;;9.27;8.40;;;21.10;99.90;;;;;;4861001;29;20205;-80
2021/08/07 09:41:16;;;;;;;8.33;7.73;;;20.90;99.90;;;;;;4883360;29;20280;-80
2021/08/07 09:44:27;;;;;;;8.23;7.70;;;20.70;99.90;;;;;;4889674;29;20246;-79
2021/08/07 09:50:26;;;;;;;8.50;7.73;;;20.40;99.90;;;;;;4853569;29;20310;-80
2021/08/07 09:53:04;;;;;;;8.30;7.70;;;20.20;99.90;;;;;;4889938;29;20205;-81
2021/08/07 10:18:34;;;;;;;8.27;7.77;;;20.00;99.90;;;;;;4880385;29;20684;-80
2021/08/07 10:32:57;;;;;;;3.23;2.43;;;19.70;99.90;;;;;;4817554;29;20223;-80
2021/08/07 10:35:27;;;;;;;8.00;7.37;;;19.60;99.90;;;;;;4862143;29;20684;-77
2021/08/07 10:37:56;;;;;;;3.17;2.60;;;19.50;99.90;;;;;;4859949;29;20700;-77
2021/08/07 10:40:25;;;;;;;4.87;4.57;;;19.40;99.90;;;;;;4860567;29;20203;-78
2021/08/07 10:42:53;;;;;;;6.40;5.90;;;19.40;99.90;;;;;;4876961;29;20194;-78
2021/08/07 10:45:21;;;;;;;2.90;2.70;;;19.40;99.90;;;;;;4861626;29;20229;-78
2021/08/07 10:47:50;;;;;;;4.43;4.03;;;19.50;99.90;;;;;;4876889;29;20302;-78
2021/08/07 10:50:36;;;;;;;8.10;7.50;;;19.60;99.90;;;;;;4861463;29;20905;-77
2021/08/07 10:53:42;;;;;;;2.80;2.60;;;19.70;99.90;;;;;;4858055;29;20642;-78
2021/08/07 10:56:08;;;;;;;6.17;5.77;;;19.70;99.90;;;;;;4826106;29;20212;-78
2021/08/07 10:58:39;;;;;;;3.50;3.20;;;19.80;99.90;;;;;;4827400;29;20308;-77
2021/08/07 11:01:31;;;;;;;2.80;2.60;;;19.70;99.90;;;;;;4855221;29;20208;-78
2021/08/07 11:04:22;;;;;;;4.50;4.10;;;19.70;99.90;;;;;;4854664;29;20237;-77
2021/08/07 11:07:10;;;;;;;5.67;5.20;;;19.60;99.90;;;;;;4853514;29;20203;-78
2021/08/07 11:09:41;;;;;;;7.23;6.63;;;19.60;99.90;;;;;;4861231;29;20209;-77
2021/08/07 11:12:19;;;;;;;8.23;7.73;;;19.60;99.90;;;;;;4860868;29;20244;-77
2021/08/07 11:14:49;;;;;;;3.90;3.50;;;19.60;99.90;;;;;;4861619;29;20313;-78
2021/08/07 11:17:33;;;;;;;2.80;2.60;;;19.60;99.90;;;;;;4860972;29;20229;-76
2021/08/07 11:20:04;;;;;;;6.50;6.10;;;19.70;99.90;;;;;;4862422;29;20684;-77
2021/08/07 11:23:13;;;;;;;6.90;6.43;;;19.60;99.90;;;;;;4859056;29;20213;-77
2021/08/07 11:26:00;;;;;;;8.33;7.83;;;19.50;99.90;;;;;;4872562;29;20209;-79
2021/08/07 11:28:30;;;;;;;8.70;8.10;;;19.40;99.90;;;;;;4858766;29;20198;-77
2021/08/07 11:31:18;;;;;;;3.37;3.10;;;19.30;99.90;;;;;;4861204;29;20696;-78
2021/08/07 11:33:44;;;;;;;2.90;2.70;;;19.30;99.90;;;;;;4859473;29;20704;-77
2021/08/07 11:36:13;;;;;;;3.10;2.80;;;19.30;99.90;;;;;;4860709;29;20691;-79
2021/08/07 11:39:04;;;;;;;3.00;2.70;;;19.20;99.90;;;;;;4860676;29;20269;-78
2021/08/07 11:41:34;;;;;;;3.27;2.90;;;19.30;99.90;;;;;;4854815;29;20202;-78
2021/08/07 11:44:02;;;;;;;4.53;4.23;;;19.30;99.90;;;;;;4859951;29;20282;-78
2021/08/07 11:46:35;;;;;;;8.47;7.97;;;19.40;99.90;;;;;;4860586;29;20195;-78
2021/08/07 11:49:05;;;;;;;9.23;8.60;;;19.40;99.90;;;;;;4860432;29;20206;-77
2021/08/07 11:51:32;;;;;;;3.00;2.70;;;19.40;99.90;;;;;;4870309;29;20298;-78
2021/08/07 11:53:59;;;;;;;6.63;6.17;;;19.40;99.90;;;;;;4860104;29;20218;-77
2021/08/07 11:56:27;;;;;;;9.00;8.40;;;19.50;99.90;;;;;;4860586;29;20573;-77
2021/08/07 11:58:56;;;;;;;8.90;8.30;;;19.50;99.90;;;;;;4860746;29;20235;-78
2021/08/07 12:01:28;;;;;;;6.70;6.20;;;19.60;99.90;;;;;;4859097;29;20210;-78
2021/08/07 12:03:56;;;;;;;9.40;8.80;;;19.70;99.90;;;;;;4860486;29;20228;-78
2021/08/07 12:06:28;;;;;;;3.37;3.03;;;19.70;99.90;;;;;;4858473;29;20203;-78
2021/08/07 12:08:55;;;;;;;9.67;8.90;;;19.80;99.90;;;;;;4860313;29;20218;-78
2021/08/07 12:11:22;;;;;;;9.20;8.60;;;20.00;99.90;;;;;;4873861;29;20218;-78
2021/08/07 12:13:53;;;;;;;7.80;7.30;;;20.00;99.90;;;;;;4860700;29;20771;-78
2021/08/07 12:16:22;;;;;;;3.00;2.70;;;20.10;99.90;;;;;;4860633;29;20217;-78
2021/08/07 12:18:51;;;;;;;3.10;2.80;;;20.20;99.90;;;;;;4859960;29;20230;-78
2021/08/07 12:21:31;;;;;;;8.27;7.77;;;20.30;99.90;;;;;;4854696;29;20208;-77
2021/08/07 12:24:00;;;;;;;9.00;8.40;;;20.40;99.90;;;;;;4860055;29;20223;-78
2021/08/07 12:26:29;;;;;;;3.60;3.30;;;20.40;99.90;;;;;;4854105;29;20211;-79
2021/08/07 12:29:03;;;;;;;3.77;2.90;;;20.30;99.90;;;;;;4860034;29;20213;-78
2021/08/07 12:31:47;;;;;;;4.50;2.90;;;20.20;99.90;;;;;;4860108;29;20212;-78
2021/08/07 12:34:20;;;;;;;2.83;2.60;;;20.10;99.90;;;;;;4868616;29;20279;-78
2021/08/07 12:36:58;;;;;;;2.80;2.60;;;20.10;99.90;;;;;;4859610;29;20213;-78
2021/08/07 12:39:25;;;;;;;3.10;2.90;;;20.10;99.90;;;;;;4859865;29;20212;-78
2021/08/07 12:41:52;;;;;;;3.77;2.73;;;20.00;99.90;;;;;;4873750;29;20199;-77
2021/08/07 12:44:22;;;;;;;8.43;7.87;;;19.90;99.90;;;;;;4858473;29;20241;-78
2021/08/07 12:46:50;;;;;;;7.70;7.17;;;19.80;99.90;;;;;;4859224;29;20203;-78
2021/08/07 12:49:33;;;;;;;9.17;8.40;;;19.80;99.90;;;;;;4873941;29;20213;-78
2021/08/07 12:52:05;;;;;;;8.13;7.63;;;19.70;99.90;;;;;;4856906;29;20220;-78
2021/08/07 12:54:32;;;;;;;8.47;7.87;;;19.60;99.90;;;;;;4858259;29;20240;-78
2021/08/07 12:56:59;;;;;;;8.00;7.50;;;19.50;99.90;;;;;;4854047;29;20268;-78
2021/08/07 12:59:27;;;;;;;8.07;7.57;;;19.30;99.90;;;;;;4858907;29;20217;-78
2021/08/07 13:02:03;;;;;;;7.80;7.30;;;19.30;99.90;;;;;;4859848;29;20193;-77
2021/08/07 13:04:41;;;;;;;7.90;7.40;;;19.10;99.90;;;;;;4858213;29;20229;-77
2021/08/07 13:07:08;;;;;;;8.40;7.80;;;19.10;99.90;;;;;;4853153;29;20206;-78
2021/08/07 13:09:36;;;;;;;8.17;7.67;;;18.90;99.90;;;;;;4859562;29;20249;-76
2021/08/07 13:12:05;;;;;;;8.57;7.97;;;18.80;99.90;;;;;;4860606;29;20227;-77
2021/08/07 13:14:33;;;;;;;8.10;7.47;;;18.70;99.90;;;;;;4860637;29;20255;-77
2021/08/07 13:17:01;;;;;;;8.20;7.70;;;18.60;99.90;;;;;;4862262;29;20198;-76
2021/08/07 13:19:30;;;;;;;7.97;7.53;;;18.60;99.90;;;;;;4858954;29;20668;-77
2021/08/07 13:22:09;;;;;;;9.30;8.70;;;18.50;99.90;;;;;;4874197;29;20629;-77
2021/08/07 13:24:38;;;;;;;8.60;7.90;;;18.40;99.90;;;;;;4859125;29;20588;-77
2021/08/07 13:27:07;;;;;;;8.40;7.90;;;18.40;99.90;;;;;;4861621;29;20265;-77
2021/08/07 13:29:35;;;;;;;9.67;9.07;;;18.40;99.90;;;;;;4861058;29;20209;-77
2021/08/07 13:32:17;;;;;;;9.67;9.07;;;18.40;99.90;;;;;;4856857;29;20305;-77
2021/08/07 13:34:44;;;;;;;9.07;8.47;;;18.40;99.90;;;;;;4856433;29;20331;-77
2021/08/07 13:37:11;;;;;;;9.70;8.90;;;18.30;99.90;;;;;;4861434;29;20290;-77
2021/08/07 13:39:40;;;;;;;8.97;8.27;;;18.20;99.90;;;;;;4863392;29;20213;-77
2021/08/07 13:42:08;;;;;;;9.30;8.70;;;18.20;99.90;;;;;;4863307;29;20201;-78
2021/08/07 13:44:36;;;;;;;10.20;9.40;;;18.10;99.90;;;;;;4901522;23;20237;-78
2021/08/07 13:47:04;;;;;;;10.40;9.60;;;18.00;99.90;;;;;;4899816;29;20211;-79